Terminal Aerodrome Forecast
Issued by NWS

Home | Current Version | Previous Version | Text Only | Print | Product List | Glossary On
Versions: 1 2 3 4 5 6 7 8 9 10 11 12 13 14
000
FTUS43 KBIS 062059 AAA
TAFDIK
TAF AMD
KDIK 062059Z 0621/0718 01017G24KT 6SM FU VCSH FEW100 BKN150
     FM070000 01015KT 6SM FU SCT150
     FM070200 03008KT P6SM SCT250
     FM071400 11006KT P6SM SKC=

USA.gov is the U.S. government's official web portal to all federal, state and local government web resources and services.